Boston, Massachusetts
Traffic Map
Current Weather Conditions
Boston, Massachusetts
Scattered Clouds
Scattered Clouds
32°
Feels Like: 24°
Wind Chill: 24° Ceiling: Unl
Heat Index: 32° Visibility: 10mi
Dew Point: 27° Wind: 10mph
Humidity: 82% Direction: 280° (W)
Pressure: 29.27in Gusts: 0mph
Raw Report DataKBOS 250354Z 28009KT 10SM SCT150 SCT280 00/M03 A2927 RMK AO2 SLP912 T00001028
Traffic Incident Summary
Active as of:
Severity:
Category:
InformationThere was an issue retrieving the traffic information for this location. Please try a different location or try again shortly.
Advertisements
Track Severe Weather on mobile